Time;durP1;ratioP1;P1;durP2;ratioP2;P2;SDS_P1;SDS_P2;PMS_P1;PMS_P2;Temp;Humidity;BMP_temperature;BMP_pressure;BME280_temperature;BME280_humidity;BME280_pressure;Samples;Min_cycle;Max_cycle;Signal;HPM_P1;HPM_P2
2021/06/06 00:03:04;;;;;;;10.88;5.92;;;;;;;15.31;73.28;100382.66;1645153;86;21222;-60
2021/06/06 00:06:20;;;;;;;9.95;4.70;;;;;;;15.31;73.20;100382.66;1645174;86;21217;-60
2021/06/06 00:09:26;;;;;;;9.68;5.42;;;;;;;15.30;73.06;100372.66;1645765;85;21398;-60
2021/06/06 00:12:34;;;;;;;11.40;5.67;;;;;;;15.29;73.24;100372.35;1645250;86;21447;-60
2021/06/06 00:15:41;;;;;;;11.20;5.72;;;;;;;15.27;73.12;100369.49;1645082;86;21240;-60
2021/06/06 00:18:49;;;;;;;8.48;4.62;;;;;;;15.25;73.02;100369.70;1645371;85;21355;-60
2021/06/06 00:21:56;;;;;;;11.48;4.62;;;;;;;15.24;73.00;100370.73;1645679;86;21400;-60
2021/06/06 00:25:07;;;;;;;12.50;4.92;;;;;;;15.22;72.98;100371.50;1645377;86;21265;-60
2021/06/06 00:28:13;;;;;;;9.43;4.60;;;;;;;15.20;72.98;100370.84;1645326;86;21360;-60
2021/06/06 00:31:20;;;;;;;14.45;4.83;;;;;;;15.20;72.97;100370.84;1645938;86;21221;-60
2021/06/06 00:34:27;;;;;;;5.95;3.95;;;;;;;15.20;72.92;100368.08;1645720;85;21383;-59
2021/06/06 00:37:33;;;;;;;8.38;4.20;;;;;;;15.20;72.87;100369.46;1645373;86;21363;-59
2021/06/06 00:40:40;;;;;;;7.90;4.65;;;;;;;15.19;72.86;100373.80;1656883;84;21210;-59
2021/06/06 00:43:50;;;;;;;10.93;4.90;;;;;;;15.18;72.92;100373.46;1684660;85;21325;-60
2021/06/06 00:46:59;;;;;;;7.87;4.62;;;;;;;15.17;73.05;100379.53;1684726;85;21198;-60
2021/06/06 00:50:08;;;;;;;12.00;4.70;;;;;;;15.16;73.08;100372.29;1684468;85;21233;-60
2021/06/06 00:53:19;;;;;;;5.97;4.17;;;;;;;15.17;73.13;100380.05;1684401;85;21352;-60
2021/06/06 00:56:31;;;;;;;9.55;4.35;;;;;;;15.15;73.20;100378.88;1684692;85;21190;-59
2021/06/06 00:59:36;;;;;;;13.62;4.55;;;;;;;15.13;73.25;100375.46;1684293;85;21201;-59
2021/06/06 01:02:42;;;;;;;7.55;4.75;;;;;;;15.14;73.14;100374.94;1684154;85;21225;-59
2021/06/06 01:05:59;;;;;;;8.80;4.50;;;;;;;15.13;72.89;100368.56;1684254;85;21209;-60
2021/06/06 01:09:08;;;;;;;7.00;4.30;;;;;;;15.13;72.36;100363.05;1697403;84;21396;-61
2021/06/06 01:12:33;;;;;;;9.93;4.12;;;;;;;15.15;71.77;100361.47;1666597;86;21279;-61
2021/06/06 01:15:43;;;;;;;12.43;4.00;;;;;;;15.17;71.55;100365.73;1659473;85;21224;-61
2021/06/06 01:18:53;;;;;;;8.93;4.78;;;;;;;15.19;71.27;100358.09;1654847;85;21280;-61
2021/06/06 01:22:17;;;;;;;8.28;4.42;;;;;;;15.21;71.06;100362.87;1676142;85;21758;-61
2021/06/06 01:25:29;;;;;;;12.40;4.90;;;;;;;15.24;70.88;100356.11;1674059;85;21501;-61
2021/06/06 01:28:40;;;;;;;11.00;4.42;;;;;;;15.24;70.57;100357.50;1656604;86;21257;-60
2021/06/06 01:31:49;;;;;;;11.88;4.35;;;;;;;15.23;71.05;100351.64;1656426;86;21169;-60
2021/06/06 01:35:05;;;;;;;9.43;4.50;;;;;;;15.22;71.10;100354.08;1656183;86;21621;-60
2021/06/06 01:38:25;;;;;;;7.85;4.28;;;;;;;15.20;70.94;100349.30;1640911;86;21308;-60
2021/06/06 01:41:44;;;;;;;8.25;4.25;;;;;;;15.19;70.80;100355.33;1653195;86;21834;-59
2021/06/06 01:44:53;;;;;;;8.90;3.85;;;;;;;15.18;70.80;100350.88;1657078;86;21271;-61
2021/06/06 01:48:00;;;;;;;11.60;4.53;;;;;;;15.18;70.62;100353.64;1655230;86;21229;-61
2021/06/06 01:51:17;;;;;;;10.53;4.62;;;;;;;15.17;70.36;100351.95;1655036;86;21228;-61
2021/06/06 01:54:25;;;;;;;12.45;5.12;;;;;;;15.19;70.14;100350.36;1655179;86;21197;-61
2021/06/06 01:57:32;;;;;;;10.63;4.33;;;;;;;15.19;69.88;100344.84;1655149;86;21371;-61
2021/06/06 02:00:46;;;;;;;9.05;4.97;;;;;;;15.21;69.76;100346.84;1655036;86;21360;-59
2021/06/06 02:03:57;;;;;;;10.18;4.55;;;;;;;15.23;69.61;100345.61;1654195;86;21371;-60
2021/06/06 02:07:18;;;;;;;7.15;4.55;;;;;;;15.25;69.44;100346.77;1655011;86;21197;-60
2021/06/06 02:10:35;;;;;;;;;;;;;;;15.25;69.23;100344.88;1682191;85;21151;-59
2021/06/06 02:13:55;;;;;;;9.85;4.22;;;;;;;15.27;69.11;100344.12;1682518;85;20289;-60
2021/06/06 02:17:05;;;;;;;7.50;4.75;;;;;;;15.26;69.00;100345.19;1681798;85;21325;-59
2021/06/06 02:20:15;;;;;;;15.20;5.10;;;;;;;15.26;68.97;100347.95;1682417;85;21238;-60
2021/06/06 02:23:30;;;;;;;9.40;4.62;;;;;;;15.27;68.99;100348.25;1682430;85;21213;-60
2021/06/06 02:26:53;;;;;;;8.50;4.58;;;;;;;15.29;68.98;100349.42;1682841;85;21163;-59
2021/06/06 02:30:05;;;;;;;12.97;4.77;;;;;;;15.31;68.97;100352.83;1682424;85;21198;-59
2021/06/06 02:33:33;;;;;;;8.88;5.25;;;;;;;15.30;68.90;100348.39;1682540;85;21407;-59
2021/06/06 02:36:41;;;;;;;13.05;4.12;;;;;;;15.29;68.70;100358.56;1682401;85;21847;-59
2021/06/06 02:39:51;;;;;;;6.58;4.42;;;;;;;15.27;68.58;100357.91;1682374;85;21225;-59
2021/06/06 02:42:58;;;;;;;13.72;4.25;;;;;;;15.24;68.72;100354.19;1680942;85;21255;-59
2021/06/06 02:46:07;;;;;;;8.43;4.25;;;;;;;15.19;68.84;100353.95;1683773;85;21311;-59
2021/06/06 02:49:25;;;;;;;8.18;3.80;;;;;;;15.16;69.20;100357.67;1661833;85;21259;-60
2021/06/06 02:52:47;;;;;;;7.10;4.10;;;;;;;15.14;69.61;100346.85;1684516;85;21199;-58
2021/06/06 02:56:02;;;;;;;6.95;3.72;;;;;;;15.11;70.25;100352.75;1684317;85;21767;-59
2021/06/06 02:59:15;;;;;;;11.00;4.37;;;;;;;15.07;70.87;100354.23;1684515;85;21239;-59
2021/06/06 03:02:24;;;;;;;11.80;3.42;;;;;;;15.01;71.53;100346.78;1657418;85;21357;-59
2021/06/06 03:05:33;;;;;;;5.28;3.50;;;;;;;14.96;72.26;100357.58;1684360;85;21234;-59
2021/06/06 03:08:39;;;;;;;7.65;3.40;;;;;;;14.91;72.91;100354.58;1684116;85;21203;-59
2021/06/06 03:11:48;;;;;;;5.37;3.55;;;;;;;14.85;73.51;100353.50;1684246;85;21239;-59
2021/06/06 03:14:55;;;;;;;7.97;3.90;;;;;;;14.82;74.04;100348.92;1684623;85;21294;-58
2021/06/06 03:18:00;;;;;;;4.72;3.27;;;;;;;14.83;74.59;100350.61;1661409;85;21203;-57
2021/06/06 03:21:13;;;;;;;9.60;4.12;;;;;;;14.82;74.95;100347.54;1684112;85;21223;-59
2021/06/06 03:24:37;;;;;;;6.22;3.85;;;;;;;14.77;75.19;100347.30;1684325;85;21200;-59
2021/06/06 03:27:45;;;;;;;10.50;4.30;;;;;;;14.73;75.69;100348.22;1684612;85;21226;-58
2021/06/06 03:30:55;;;;;;;14.00;4.17;;;;;;;14.67;76.05;100346.80;1665550;85;21235;-59
2021/06/06 03:34:05;;;;;;;8.18;4.33;;;;;;;14.67;76.44;100349.56;1684144;85;21219;-59
2021/06/06 03:37:12;;;;;;;15.55;3.90;;;;;;;14.66;76.78;100348.73;1684448;85;21204;-59
2021/06/06 03:40:21;;;;;;;7.17;4.45;;;;;;;14.65;77.05;100342.05;1684489;85;21235;-59
2021/06/06 03:43:33;;;;;;;6.37;3.87;;;;;;;14.64;77.28;100351.34;1684494;84;21310;-59
2021/06/06 03:46:37;;;;;;;6.85;4.65;;;;;;;14.65;77.66;100347.01;1684561;85;21515;-59
2021/06/06 03:49:43;;;;;;;12.33;4.85;;;;;;;14.65;77.82;100342.05;1684081;85;21243;-59
2021/06/06 03:52:51;;;;;;;7.75;4.85;;;;;;;14.69;78.25;100346.08;1684289;85;21228;-60
2021/06/06 03:55:57;;;;;;;12.23;4.80;;;;;;;14.71;78.52;100344.81;1684257;85;21293;-60
2021/06/06 03:59:02;;;;;;;8.80;5.03;;;;;;;14.71;78.87;100346.19;1684102;85;21220;-60
2021/06/06 04:02:08;;;;;;;7.17;4.47;;;;;;;14.73;79.27;100351.53;1683609;85;21314;-61
2021/06/06 04:05:18;;;;;;;10.18;5.22;;;;;;;14.74;79.61;100345.81;1684458;85;21210;-59
2021/06/06 04:08:25;;;;;;;9.58;4.75;;;;;;;14.77;80.00;100350.91;1684001;85;21270;-59
2021/06/06 04:11:32;;;;;;;7.58;4.50;;;;;;;14.81;80.29;100345.30;1683911;85;21191;-59
2021/06/06 04:14:43;;;;;;;8.55;5.45;;;;;;;14.82;80.58;100344.27;1684491;85;21207;-61
2021/06/06 04:17:51;;;;;;;8.65;4.67;;;;;;;14.84;80.92;100336.62;1684177;85;21231;-60
2021/06/06 04:20:59;;;;;;;9.63;5.10;;;;;;;14.86;81.09;100346.92;1684128;85;21246;-63
2021/06/06 04:24:06;;;;;;;14.00;5.12;;;;;;;14.85;81.32;100338.34;1684199;85;21216;-62
2021/06/06 04:27:15;;;;;;;8.48;5.33;;;;;;;14.87;81.47;100338.97;1684178;85;21219;-61
2021/06/06 04:30:23;;;;;;;8.60;4.60;;;;;;;14.86;81.64;100342.79;1684197;85;21266;-60
2021/06/06 04:33:30;;;;;;;7.87;4.72;;;;;;;14.83;81.77;100344.58;1684549;85;21218;-58
2021/06/06 04:36:36;;;;;;;10.55;5.05;;;;;;;14.82;81.94;100347.54;1684401;85;21214;-59
2021/06/06 04:39:43;;;;;;;7.65;4.87;;;;;;;14.76;82.05;100345.06;1684258;85;21247;-61
2021/06/06 04:42:50;;;;;;;6.65;4.55;;;;;;;14.74;82.31;100343.06;1684482;85;21271;-60
2021/06/06 04:45:56;;;;;;;7.40;4.97;;;;;;;14.72;82.55;100349.80;1683862;82;21224;-59
2021/06/06 04:49:03;;;;;;;9.00;4.40;;;;;;;14.72;82.84;100341.54;1682440;85;21371;-60
2021/06/06 04:52:09;;;;;;;10.13;4.95;;;;;;;14.72;83.04;100343.78;1682909;85;21425;-60
2021/06/06 04:55:23;;;;;;;6.17;4.35;;;;;;;14.76;83.16;100342.85;1682360;85;21276;-60
2021/06/06 04:58:32;;;;;;;7.08;5.15;;;;;;;14.77;83.29;100339.89;1682049;85;21247;-61
2021/06/06 05:01:39;;;;;;;6.60;4.92;;;;;;;14.80;83.47;100338.61;1682338;85;21287;-60
2021/06/06 05:04:47;;;;;;;10.40;5.35;;;;;;;14.83;83.72;100328.56;1682562;85;21224;-61
2021/06/06 05:07:59;;;;;;;6.87;4.33;;;;;;;14.87;83.88;100329.87;1678379;85;21338;-59
2021/06/06 05:11:05;;;;;;;7.55;4.60;;;;;;;14.92;84.03;100327.36;1682595;85;21250;-60
2021/06/06 05:14:13;;;;;;;9.13;4.85;;;;;;;14.95;84.16;100327.77;1682300;85;21247;-59
2021/06/06 05:17:20;;;;;;;6.50;4.50;;;;;;;15.01;84.27;100330.25;1682565;85;21231;-59
2021/06/06 05:20:34;;;;;;;7.45;5.40;;;;;;;15.05;84.12;100330.69;1682913;85;21366;-60
2021/06/06 05:23:42;;;;;;;6.80;4.87;;;;;;;15.08;84.12;100335.24;1682924;85;21847;-60
2021/06/06 05:26:48;;;;;;;5.35;4.47;;;;;;;15.08;83.96;100333.03;1683246;85;21271;-58
2021/06/06 05:29:54;;;;;;;7.10;4.75;;;;;;;15.08;83.89;100333.03;1682566;85;21361;-58
2021/06/06 05:32:59;;;;;;;9.78;4.53;;;;;;;15.09;84.03;100328.69;1682435;85;21358;-58
2021/06/06 05:36:06;;;;;;;7.00;4.47;;;;;;;15.08;83.81;100335.24;1682509;85;21227;-60
2021/06/06 05:39:14;;;;;;;7.17;4.37;;;;;;;15.07;83.88;100326.66;1683093;85;21243;-60
2021/06/06 05:42:19;;;;;;;7.05;4.12;;;;;;;15.09;83.83;100334.20;1682912;85;21341;-60
2021/06/06 05:45:25;;;;;;;10.43;4.90;;;;;;;15.10;83.79;100330.38;1682300;85;21230;-59
2021/06/06 05:48:31;;;;;;;8.35;5.00;;;;;;;15.13;83.81;100331.89;1653638;87;21406;-59
2021/06/06 05:51:36;;;;;;;6.75;4.65;;;;;;;15.18;83.82;100333.47;1653853;87;21412;-59
2021/06/06 05:54:44;;;;;;;9.60;4.45;;;;;;;15.21;83.72;100329.78;1653838;87;21284;-59
2021/06/06 05:57:50;;;;;;;6.15;4.33;;;;;;;15.20;83.52;100331.38;1653907;87;21304;-59
2021/06/06 06:00:56;;;;;;;8.60;4.42;;;;;;;15.18;83.29;100324.69;1653672;87;21450;-59
2021/06/06 06:04:03;;;;;;;6.20;4.22;;;;;;;15.17;83.42;100328.52;1638014;87;21813;-59
2021/06/06 06:07:09;;;;;;;7.05;4.45;;;;;;;15.17;83.40;100323.00;1663319;86;21225;-58
2021/06/06 06:10:19;;;;;;;6.45;4.25;;;;;;;15.18;83.46;100320.55;1666845;86;21288;-59
2021/06/06 06:13:26;;;;;;;4.90;4.17;;;;;;;15.20;83.58;100325.34;1666913;86;21205;-59
2021/06/06 06:16:37;;;;;;;7.67;4.70;;;;;;;15.27;83.65;100328.95;1666775;86;21240;-58
2021/06/06 06:19:42;;;;;;;6.75;4.83;;;;;;;15.30;83.58;100330.46;1666932;86;21836;-58
2021/06/06 06:22:48;;;;;;;7.53;4.20;;;;;;;15.34;83.48;100333.97;1667179;86;21221;-59
2021/06/06 06:25:53;;;;;;;6.75;4.28;;;;;;;15.38;83.42;100330.27;1667080;86;21264;-57
2021/06/06 06:28:59;;;;;;;5.97;4.90;;;;;;;15.42;83.26;100323.30;1667217;86;21231;-58
2021/06/06 06:32:12;;;;;;;8.25;5.22;;;;;;;15.42;83.02;100324.16;1624516;86;21276;-60
2021/06/06 06:35:17;;;;;;;7.83;4.67;;;;;;;15.44;83.10;100322.05;1667366;86;21789;-59
2021/06/06 06:38:24;;;;;;;6.22;4.62;;;;;;;15.45;83.02;100327.88;1667281;86;21268;-59
2021/06/06 06:41:35;;;;;;;10.35;4.85;;;;;;;15.49;82.90;100320.05;1667321;86;21260;-58
2021/06/06 06:44:41;;;;;;;7.10;4.65;;;;;;;15.53;82.88;100319.41;1667323;86;21252;-58
2021/06/06 06:47:46;;;;;;;7.97;4.70;;;;;;;15.60;82.82;100313.91;1677033;82;21205;-58
2021/06/06 06:50:51;;;;;;;11.75;5.35;;;;;;;15.69;82.71;100317.64;1700727;84;21765;-58
2021/06/06 06:53:58;;;;;;;8.60;4.17;;;;;;;15.79;82.48;100311.15;1701404;84;21367;-58
2021/06/06 06:57:04;;;;;;;7.28;4.60;;;;;;;15.91;82.38;100314.14;1700524;84;21260;-58
2021/06/06 07:00:14;;;;;;;7.22;4.35;;;;;;;16.03;82.11;100312.45;1701181;84;21430;-59
2021/06/06 07:03:25;;;;;;;8.38;5.15;;;;;;;16.13;81.76;100313.72;1666802;86;21264;-60
2021/06/06 07:06:30;;;;;;;11.70;5.40;;;;;;;16.27;81.33;100307.64;1701233;84;21413;-58
2021/06/06 07:09:35;;;;;;;18.32;6.62;;;;;;;16.37;80.70;100313.06;1701004;84;21371;-58
2021/06/06 07:12:42;;;;;;;11.63;5.17;;;;;;;16.47;80.57;100311.27;1642355;87;21794;-59
2021/06/06 07:15:48;;;;;;;10.60;5.15;;;;;;;16.58;79.77;100311.13;1673922;85;21225;-60
2021/06/06 07:18:54;;;;;;;8.45;5.55;;;;;;;16.62;79.31;100310.48;1673988;85;21213;-59
2021/06/06 07:22:00;;;;;;;11.73;5.20;;;;;;;16.66;78.77;100310.91;1673813;85;21252;-60
2021/06/06 07:25:05;;;;;;;11.00;8.18;;;;;;;16.67;78.51;100307.92;1674475;85;21374;-61
2021/06/06 07:28:10;;;;;;;7.65;5.83;;;;;;;16.75;78.34;100312.36;1674273;85;21303;-60
2021/06/06 07:31:17;;;;;;;5.97;3.87;;;;;;;16.81;78.36;100310.95;1674553;85;21421;-59
2021/06/06 07:34:25;;;;;;;9.15;4.45;;;;;;;16.85;77.63;100315.52;1674002;85;21367;-59
2021/06/06 07:37:29;;;;;;;9.73;4.50;;;;;;;16.84;76.96;100315.22;1674649;85;21232;-58
2021/06/06 07:40:39;;;;;;;7.60;4.20;;;;;;;16.90;76.34;100321.25;1674519;85;21419;-58
2021/06/06 07:43:45;;;;;;;7.60;4.10;;;;;;;16.92;75.62;100314.98;1674934;85;21343;-60
2021/06/06 07:46:51;;;;;;;8.58;4.35;;;;;;;16.98;75.64;100314.09;1677715;85;21287;-60
2021/06/06 07:49:57;;;;;;;9.80;4.05;;;;;;;17.12;75.71;100303.28;1655041;82;21358;-60
2021/06/06 07:53:03;;;;;;;7.97;3.58;;;;;;;17.32;75.45;100310.94;1638403;87;21273;-59
2021/06/06 07:56:08;;;;;;;12.63;3.75;;;;;;;17.53;74.83;100311.51;1638352;87;21257;-59
2021/06/06 07:59:15;;;;;;;8.15;3.75;;;;;;;17.70;74.08;100304.88;1638541;87;21345;-59
2021/06/06 08:02:20;;;;;;;6.28;3.08;;;;;;;17.89;73.22;100313.05;1638476;87;21225;-59
2021/06/06 08:05:26;;;;;;;5.50;3.12;;;;;;;18.08;72.67;100304.79;1638190;87;21229;-58
2021/06/06 08:08:33;;;;;;;6.33;2.83;;;;;;;18.26;71.90;100310.39;1637963;87;21237;-59
2021/06/06 08:11:39;;;;;;;8.13;3.52;;;;;;;18.43;71.35;100305.47;1638012;87;21541;-58
2021/06/06 08:14:46;;;;;;;7.17;3.50;;;;;;;18.59;69.93;100310.95;1638230;87;21197;-60
2021/06/06 08:17:52;;;;;;;8.30;3.02;;;;;;;18.69;69.44;100308.50;1638115;87;21268;-60
2021/06/06 08:21:05;;;;;;;7.58;2.60;;;;;;;18.82;69.18;100309.19;1638508;87;21828;-61
2021/06/06 08:24:13;;;;;;;3.92;2.50;;;;;;;18.92;68.28;100314.20;1644968;86;21971;-61
2021/06/06 08:27:18;;;;;;;8.58;3.17;;;;;;;19.03;67.80;100315.66;1633957;87;21359;-60
2021/06/06 08:30:38;;;;;;;4.53;2.60;;;;;;;19.13;66.88;100312.34;1621612;88;21303;-60
2021/06/06 08:33:43;;;;;;;7.58;3.30;;;;;;;19.15;66.64;100310.19;1633218;87;21216;-60
2021/06/06 08:36:51;;;;;;;9.10;3.12;;;;;;;19.12;66.83;100311.48;1620120;88;21370;-60
2021/06/06 08:39:57;;;;;;;7.95;3.20;;;;;;;19.18;67.13;100307.80;1633921;87;21401;-59
2021/06/06 08:43:05;;;;;;;6.60;3.75;;;;;;;19.25;66.61;100307.69;1633544;87;21406;-58
2021/06/06 08:46:11;;;;;;;9.63;3.37;;;;;;;19.31;66.18;100310.41;1621860;88;21339;-60
2021/06/06 08:49:17;;;;;;;4.55;3.12;;;;;;;19.44;65.72;100300.23;1633321;88;21425;-58
2021/06/06 08:52:39;;;;;;;10.10;3.58;;;;;;;19.51;65.81;100297.66;1653914;86;21742;-60
2021/06/06 08:56:18;;;;;;;7.10;3.60;;;;;;;19.68;65.65;100297.84;1626500;87;21327;-59
2021/06/06 08:59:38;;;;;;;8.63;4.00;;;;;;;19.82;66.35;100291.00;1626406;88;21259;-60
2021/06/06 09:02:49;;;;;;;4.67;3.55;;;;;;;20.06;65.74;100295.52;1626275;88;21733;-59
2021/06/06 09:05:58;;;;;;;6.72;3.60;;;;;;;20.17;65.11;100297.50;1625221;88;21610;-59
2021/06/06 09:09:05;;;;;;;8.38;3.80;;;;;;;20.19;64.06;100300.86;1625846;88;21588;-60
2021/06/06 09:12:13;;;;;;;9.35;3.72;;;;;;;20.19;64.07;100289.75;1632563;85;21688;-60
2021/06/06 09:15:22;;;;;;;8.00;4.05;;;;;;;20.16;64.21;100298.56;1675339;85;21240;-60
2021/06/06 09:18:34;;;;;;;8.48;3.52;;;;;;;20.09;64.13;100302.81;1675069;85;21745;-61
2021/06/06 09:21:40;;;;;;;7.20;3.50;;;;;;;19.94;64.41;100299.66;1642463;87;21374;-60
2021/06/06 09:24:49;;;;;;;5.45;3.25;;;;;;;19.81;65.03;100292.92;1642842;87;21465;-60
2021/06/06 09:27:54;;;;;;;7.30;3.22;;;;;;;19.84;65.76;100294.36;1643188;87;21869;-59
2021/06/06 09:31:21;;;;;;;5.15;3.52;;;;;;;19.95;65.09;100299.09;1676200;85;21586;-60
2021/06/06 09:34:30;;;;;;;7.47;2.95;;;;;;;19.99;64.91;100292.85;1639959;87;21391;-61
2021/06/06 09:37:36;;;;;;;6.67;3.40;;;;;;;20.04;64.62;100299.08;1642543;87;21931;-62
2021/06/06 09:40:45;;;;;;;8.98;3.30;;;;;;;20.13;64.06;100291.53;1643268;86;21418;-62
2021/06/06 09:44:13;;;;;;;8.03;3.72;;;;;;;20.27;63.49;100286.61;1616249;88;21214;-61
2021/06/06 09:47:21;;;;;;;6.33;3.40;;;;;;;20.39;63.07;100286.09;1656005;85;21363;-60
2021/06/06 09:50:28;;;;;;;7.40;3.30;;;;;;;20.51;63.43;100277.19;1651617;86;21246;-60
2021/06/06 09:53:37;;;;;;;6.67;3.35;;;;;;;20.68;62.38;100278.98;1681006;85;21211;-59
2021/06/06 09:56:41;;;;;;;5.33;2.90;;;;;;;20.89;61.17;100266.36;1680772;85;21215;-61
2021/06/06 09:59:47;;;;;;;6.72;2.52;;;;;;;21.17;60.32;100267.00;1681001;85;21292;-61
2021/06/06 10:03:14;;;;;;;4.33;3.02;;;;;;;21.46;59.35;100261.17;1680143;85;21402;-61
2021/06/06 10:06:36;;;;;;;6.15;3.08;;;;;;;21.69;58.88;100259.64;1681209;85;21730;-61
2021/06/06 10:09:41;;;;;;;6.72;3.77;;;;;;;21.78;58.16;100253.16;1681583;85;21927;-63
2021/06/06 10:12:49;;;;;;;5.58;3.37;;;;;;;21.85;58.27;100258.86;1682061;85;21851;-59
2021/06/06 10:16:05;;;;;;;7.50;3.27;;;;;;;21.96;58.38;100269.09;1681565;85;21804;-62
2021/06/06 10:19:41;;;;;;;5.12;2.72;;;;;;;22.03;57.86;100254.44;1681753;85;21766;-62
2021/06/06 10:22:55;;;;;;;5.97;2.40;;;;;;;22.18;57.50;100249.09;1681939;85;21330;-62
2021/06/06 10:26:13;;;;;;;6.85;2.77;;;;;;;22.26;56.51;100251.17;1682729;85;21223;-62
2021/06/06 10:30:05;;;;;;;10.95;3.02;;;;;;;22.39;56.30;100248.04;1681471;85;21433;-61
2021/06/06 10:33:24;;;;;;;6.33;2.87;;;;;;;22.50;55.67;100242.33;1681007;85;21193;-61
2021/06/06 10:36:32;;;;;;;4.12;2.90;;;;;;;22.56;55.38;100241.91;1683852;85;21201;-62
2021/06/06 10:39:43;;;;;;;5.70;3.10;;;;;;;22.58;55.25;100232.73;1683554;85;21249;-61
2021/06/06 10:42:53;;;;;;;6.47;2.55;;;;;;;22.58;55.41;100239.70;1680997;84;21272;-61
2021/06/06 10:46:32;;;;;;;4.50;2.80;;;;;;;22.59;55.30;100242.23;1676025;85;21808;-62
2021/06/06 10:49:42;;;;;;;7.28;3.08;;;;;;;22.67;54.78;100239.55;1675528;85;21678;-62
2021/06/06 10:52:48;;;;;;;8.68;2.95;;;;;;;22.71;54.68;100232.33;1674789;84;21228;-63
2021/06/06 10:56:10;;;;;;;5.05;2.77;;;;;;;22.74;54.62;100224.87;1675903;85;21287;-61
2021/06/06 10:59:17;;;;;;;4.05;2.87;;;;;;;22.74;54.68;100224.30;1676647;85;21259;-64
2021/06/06 11:02:44;;;;;;;4.83;3.05;;;;;;;22.71;55.17;100218.38;1676235;85;21231;-62
2021/06/06 11:06:00;;;;;;;6.03;3.05;;;;;;;22.66;55.00;100217.77;1675786;85;21745;-61
2021/06/06 11:09:06;;;;;;;7.45;2.87;;;;;;;22.79;55.33;100217.39;1676702;84;21757;-60
2021/06/06 11:12:19;;;;;;;3.67;2.40;;;;;;;22.93;54.27;100216.46;1696105;84;21237;-62
2021/06/06 11:15:44;;;;;;;6.87;3.12;;;;;;;23.18;54.29;100211.17;1673578;85;21354;-61
2021/06/06 11:18:58;;;;;;;11.93;2.87;;;;;;;23.56;53.25;100209.66;1674007;85;21769;-64
2021/06/06 11:22:10;;;;;;;5.87;2.65;;;;;;;23.75;52.80;100210.11;1674262;85;22221;-60
2021/06/06 11:25:48;;;;;;;10.23;3.17;;;;;;;23.80;52.29;100205.97;1674233;85;21280;-62
2021/06/06 11:28:56;;;;;;;5.95;2.35;;;;;;;23.72;52.31;100207.30;1629532;87;21252;-60
2021/06/06 11:32:23;;;;;;;9.45;3.12;;;;;;;23.69;52.91;100206.98;1645375;86;21287;-61
2021/06/06 11:35:48;;;;;;;6.40;2.45;;;;;;;23.85;53.21;100198.45;1669241;84;21240;-61
2021/06/06 11:38:55;;;;;;;12.13;3.27;;;;;;;23.92;52.52;100196.28;1696066;84;21720;-60
2021/06/06 11:42:02;;;;;;;4.83;2.37;;;;;;;23.78;52.27;100199.25;1674564;84;21912;-61
2021/06/06 11:45:19;;;;;;;5.12;2.35;;;;;;;23.70;52.71;100189.09;1660329;84;21240;-61
2021/06/06 11:48:47;;;;;;;5.83;2.50;;;;;;;23.66;52.19;100204.15;1655816;85;21280;-60
2021/06/06 11:51:52;;;;;;;4.65;2.27;;;;;;;23.41;51.98;100201.97;1690855;83;21273;-61
2021/06/06 11:55:05;;;;;;;8.00;2.75;;;;;;;23.03;52.90;100194.22;1674068;82;21220;-61
2021/06/06 11:58:32;;;;;;;3.60;2.67;;;;;;;22.73;54.30;100207.27;1677461;85;21244;-63
2021/06/06 12:01:40;;;;;;;4.65;2.65;;;;;;;22.46;53.91;100199.86;1677422;85;21501;-63
2021/06/06 12:04:47;;;;;;;4.15;2.30;;;;;;;22.19;54.82;100197.82;1648960;87;21393;-62
2021/06/06 12:07:54;;;;;;;6.60;3.17;;;;;;;22.04;55.60;100196.17;1678543;85;21626;-60
2021/06/06 12:11:03;;;;;;;5.92;2.90;;;;;;;21.99;55.95;100196.09;1675231;85;21217;-61
2021/06/06 12:14:29;;;;;;;12.43;3.02;;;;;;;21.90;56.47;100189.80;1647883;87;21240;-61
2021/06/06 12:17:37;;;;;;;7.22;3.17;;;;;;;21.84;57.02;100181.92;1665625;85;21343;-61
2021/06/06 12:20:58;;;;;;;7.50;2.75;;;;;;;21.86;56.97;100187.23;1627653;87;21212;-61
2021/06/06 12:24:19;;;;;;;15.20;4.55;;;;;;;21.89;57.18;100186.19;1628397;86;21244;-61
2021/06/06 12:27:30;;;;;;;4.70;2.87;;;;;;;21.92;56.81;100191.25;1662903;86;21371;-60
2021/06/06 12:30:39;;;;;;;6.95;3.40;;;;;;;21.90;56.52;100185.62;1649133;87;21405;-62
2021/06/06 12:33:46;;;;;;;5.15;2.75;;;;;;;21.85;56.60;100187.78;1677368;85;21686;-61
2021/06/06 12:36:51;;;;;;;4.78;3.08;;;;;;;21.82;56.89;100181.32;1673023;85;21746;-60
2021/06/06 12:39:59;;;;;;;6.33;2.60;;;;;;;21.80;56.96;100182.69;1674165;85;21253;-61
2021/06/06 12:43:05;;;;;;;4.72;3.02;;;;;;;21.81;56.88;100182.44;1647425;87;21255;-61
2021/06/06 12:46:14;;;;;;;5.67;2.70;;;;;;;21.82;56.95;100182.72;1676863;85;21595;-62
2021/06/06 12:49:20;;;;;;;6.22;3.10;;;;;;;21.85;56.86;100181.38;1676678;85;21208;-61
2021/06/06 12:53:08;;;;;;;6.22;2.47;;;;;;;21.86;56.93;100185.31;1679128;84;21229;-61
2021/06/06 12:56:26;;;;;;;5.85;2.80;;;;;;;21.84;56.81;100184.70;1698298;83;21355;-61
2021/06/06 12:59:34;;;;;;;4.83;2.62;;;;;;;21.80;56.95;100176.55;1701010;84;21379;-61
2021/06/06 13:02:39;;;;;;;4.33;2.85;;;;;;;21.77;57.15;100174.27;1701567;84;21389;-61
2021/06/06 13:05:50;;;;;;;6.37;2.92;;;;;;;21.68;57.36;100172.13;1700609;84;21244;-61
2021/06/06 13:08:59;;;;;;;3.22;2.40;;;;;;;21.57;57.48;100178.08;1695472;84;21943;-60
2021/06/06 13:12:45;;;;;;;6.53;3.17;;;;;;;21.47;58.57;100183.46;1692948;84;21758;-61
2021/06/06 13:15:52;;;;;;;5.47;2.65;;;;;;;21.37;59.69;100166.59;1667390;85;21240;-60
2021/06/06 13:19:14;;;;;;;5.10;2.72;;;;;;;21.26;59.91;100164.72;1700665;84;21201;-61
2021/06/06 13:22:34;;;;;;;5.20;2.90;;;;;;;21.20;59.68;100158.73;1697166;84;21880;-61
2021/06/06 13:25:59;;;;;;;4.95;2.58;;;;;;;21.27;59.81;100162.75;1701370;84;21379;-60
2021/06/06 13:29:15;;;;;;;6.58;2.80;;;;;;;21.39;59.77;100155.20;1701391;84;21216;-61
2021/06/06 13:32:37;;;;;;;3.98;2.45;;;;;;;21.60;59.19;100158.06;1667474;86;21280;-60
2021/06/06 13:35:43;;;;;;;3.93;2.70;;;;;;;21.76;58.15;100153.08;1659162;85;21774;-59
2021/06/06 13:38:48;;;;;;;5.35;2.90;;;;;;;21.95;56.81;100149.47;1680467;84;21739;-61
2021/06/06 13:41:53;;;;;;;4.67;2.58;;;;;;;22.17;56.38;100151.75;1686238;84;21823;-61
2021/06/06 13:45:00;;;;;;;4.80;2.50;;;;;;;22.41;55.60;100146.78;1671859;85;21777;-60
2021/06/06 13:48:06;;;;;;;6.17;2.27;;;;;;;22.59;54.30;100147.91;1687627;84;21235;-60
2021/06/06 13:51:13;;;;;;;5.78;2.35;;;;;;;22.63;54.46;100147.12;1683228;85;21256;-60
2021/06/06 13:54:19;;;;;;;4.20;2.33;;;;;;;22.65;53.48;100146.86;1673730;85;21837;-61
2021/06/06 13:57:24;;;;;;;3.30;2.05;;;;;;;22.60;53.87;100152.37;1685121;80;21248;-62
2021/06/06 14:00:32;;;;;;;6.03;2.50;;;;;;;22.60;54.22;100137.02;1683692;85;21256;-60
2021/06/06 14:03:41;;;;;;;5.62;2.33;;;;;;;22.69;54.06;100141.06;1683478;85;21350;-60
2021/06/06 14:06:47;;;;;;;6.80;2.37;;;;;;;22.80;53.91;100145.66;1673997;85;21363;-59
2021/06/06 14:09:52;;;;;;;8.35;2.55;;;;;;;22.88;53.89;100141.02;1683929;85;21244;-61
2021/06/06 14:12:57;;;;;;;5.95;2.50;;;;;;;22.96;53.86;100141.95;1673093;85;21265;-60
2021/06/06 14:16:05;;;;;;;8.23;3.52;;;;;;;22.99;54.26;100147.83;1684333;84;21437;-60
2021/06/06 14:19:20;;;;;;;6.40;2.60;;;;;;;23.05;54.27;100143.16;1683990;85;21748;-61
2021/06/06 14:22:26;;;;;;;4.05;2.10;;;;;;;22.91;54.22;100141.88;1684207;85;21228;-62
2021/06/06 14:25:39;;;;;;;5.55;3.15;;;;;;;22.65;54.31;100142.67;1673683;85;21268;-64
2021/06/06 14:28:45;;;;;;;5.95;3.45;;;;;;;22.43;54.92;100139.00;1686088;84;21224;-61
2021/06/06 14:31:51;;;;;;;8.40;4.47;;;;;;;22.26;55.51;100138.22;1683662;85;21433;-60
2021/06/06 14:34:56;;;;;;;5.25;3.17;;;;;;;22.16;56.11;100143.95;1683646;85;21239;-61
2021/06/06 14:38:01;;;;;;;7.05;2.67;;;;;;;22.14;56.48;100143.36;1683637;84;21752;-60
2021/06/06 14:41:07;;;;;;;5.30;2.60;;;;;;;22.21;56.74;100141.78;1673138;85;21243;-61
2021/06/06 14:44:12;;;;;;;6.75;2.72;;;;;;;22.39;56.81;100142.86;1683989;85;21374;-60
2021/06/06 14:47:17;;;;;;;5.58;3.17;;;;;;;22.54;56.61;100150.62;1673940;85;21233;-59